sensor_id;sensor_type;location;lat;lon;timestamp;P1;durP1;ratioP1;P2;durP2;ratioP2
75356;SDS011;63946;51.986;5.930;2024-03-17T07:24:15;10.27;;;7.00;;
75356;SDS011;63946;51.986;5.930;2024-03-17T07:26:44;9.18;;;6.60;;
75356;SDS011;63946;51.986;5.930;2024-03-17T07:29:13;9.90;;;6.40;;
75356;SDS011;63946;51.986;5.930;2024-03-17T07:31:42;8.10;;;6.10;;
75356;SDS011;63946;51.986;5.930;2024-03-17T07:34:13;11.50;;;8.25;;
75356;SDS011;63946;51.986;5.930;2024-03-17T07:36:41;10.70;;;6.88;;
75356;SDS011;63946;51.986;5.930;2024-03-17T07:39:10;10.13;;;7.53;;
75356;SDS011;63946;51.986;5.930;2024-03-17T07:41:41;8.45;;;6.47;;
75356;SDS011;63946;51.986;5.930;2024-03-17T07:44:11;11.35;;;7.32;;
75356;SDS011;63946;51.986;5.930;2024-03-17T07:46:40;11.00;;;7.45;;
75356;SDS011;63946;51.986;5.930;2024-03-17T07:49:09;12.45;;;7.63;;
75356;SDS011;63946;51.986;5.930;2024-03-17T07:51:38;11.40;;;8.02;;
75356;SDS011;63946;51.986;5.930;2024-03-17T07:54:06;11.88;;;6.78;;
75356;SDS011;63946;51.986;5.930;2024-03-17T07:56:35;11.68;;;7.97;;
75356;SDS011;63946;51.986;5.930;2024-03-17T07:59:04;11.27;;;7.38;;
75356;SDS011;63946;51.986;5.930;2024-03-17T08:01:37;9.68;;;6.70;;
75356;SDS011;63946;51.986;5.930;2024-03-17T08:04:06;11.02;;;6.80;;
75356;SDS011;63946;51.986;5.930;2024-03-17T08:06:40;9.02;;;6.32;;
75356;SDS011;63946;51.986;5.930;2024-03-17T08:09:10;11.65;;;7.57;;
75356;SDS011;63946;51.986;5.930;2024-03-17T08:11:38;10.50;;;6.97;;
75356;SDS011;63946;51.986;5.930;2024-03-17T08:14:12;15.50;;;7.22;;
75356;SDS011;63946;51.986;5.930;2024-03-17T08:16:42;8.65;;;5.88;;
75356;SDS011;63946;51.986;5.930;2024-03-17T08:19:11;10.13;;;6.28;;
75356;SDS011;63946;51.986;5.930;2024-03-17T08:21:39;8.80;;;5.32;;
75356;SDS011;63946;51.986;5.930;2024-03-17T08:24:08;7.13;;;5.28;;
75356;SDS011;63946;51.986;5.930;2024-03-17T08:26:37;9.00;;;5.57;;
75356;SDS011;63946;51.986;5.930;2024-03-17T08:29:06;7.22;;;5.25;;
75356;SDS011;63946;51.986;5.930;2024-03-17T08:31:35;6.97;;;5.03;;
75356;SDS011;63946;51.986;5.930;2024-03-17T08:34:03;7.72;;;4.85;;
75356;SDS011;63946;51.986;5.930;2024-03-17T08:36:32;8.93;;;5.60;;
75356;SDS011;63946;51.986;5.930;2024-03-17T08:39:02;6.05;;;4.50;;
75356;SDS011;63946;51.986;5.930;2024-03-17T08:41:31;9.05;;;5.22;;
75356;SDS011;63946;51.986;5.930;2024-03-17T08:44:00;6.22;;;4.43;;
75356;SDS011;63946;51.986;5.930;2024-03-17T08:46:29;6.20;;;4.50;;
75356;SDS011;63946;51.986;5.930;2024-03-17T08:48:58;6.45;;;4.60;;
75356;SDS011;63946;51.986;5.930;2024-03-17T08:51:27;5.68;;;4.15;;
75356;SDS011;63946;51.986;5.930;2024-03-17T08:53:55;5.47;;;4.40;;
75356;SDS011;63946;51.986;5.930;2024-03-17T08:56:27;6.18;;;4.57;;
75356;SDS011;63946;51.986;5.930;2024-03-17T08:58:56;7.47;;;4.35;;
75356;SDS011;63946;51.986;5.930;2024-03-17T09:01:24;6.05;;;4.15;;
75356;SDS011;63946;51.986;5.930;2024-03-17T09:03:53;6.40;;;4.40;;
75356;SDS011;63946;51.986;5.930;2024-03-17T09:06:26;6.55;;;4.43;;
75356;SDS011;63946;51.986;5.930;2024-03-17T09:08:55;8.00;;;4.32;;
75356;SDS011;63946;51.986;5.930;2024-03-17T09:11:24;6.47;;;4.47;;
75356;SDS011;63946;51.986;5.930;2024-03-17T09:13:53;8.55;;;5.55;;
75356;SDS011;63946;51.986;5.930;2024-03-17T09:16:24;6.63;;;4.70;;
75356;SDS011;63946;51.986;5.930;2024-03-17T09:18:51;5.90;;;4.20;;
75356;SDS011;63946;51.986;5.930;2024-03-17T09:21:20;7.70;;;3.70;;
75356;SDS011;63946;51.986;5.930;2024-03-17T09:23:48;5.43;;;3.40;;
75356;SDS011;63946;51.986;5.930;2024-03-17T09:26:18;6.80;;;4.38;;
75356;SDS011;63946;51.986;5.930;2024-03-17T09:28:46;7.57;;;4.78;;
75356;SDS011;63946;51.986;5.930;2024-03-17T09:31:15;8.02;;;4.18;;
75356;SDS011;63946;51.986;5.930;2024-03-17T09:33:44;5.13;;;4.30;;
75356;SDS011;63946;51.986;5.930;2024-03-17T09:36:12;7.78;;;4.35;;
75356;SDS011;63946;51.986;5.930;2024-03-17T09:38:41;7.72;;;4.57;;
75356;SDS011;63946;51.986;5.930;2024-03-17T09:41:17;6.05;;;4.63;;
75356;SDS011;63946;51.986;5.930;2024-03-17T09:43:50;5.82;;;4.63;;
75356;SDS011;63946;51.986;5.930;2024-03-17T09:46:25;5.75;;;4.55;;
75356;SDS011;63946;51.986;5.930;2024-03-17T09:48:55;7.40;;;4.70;;
75356;SDS011;63946;51.986;5.930;2024-03-17T09:51:25;7.88;;;4.30;;
75356;SDS011;63946;51.986;5.930;2024-03-17T09:53:54;6.63;;;4.85;;
75356;SDS011;63946;51.986;5.930;2024-03-17T09:56:22;6.30;;;4.30;;
75356;SDS011;63946;51.986;5.930;2024-03-17T09:58:51;7.93;;;4.78;;
75356;SDS011;63946;51.986;5.930;2024-03-17T10:01:23;5.28;;;4.40;;
75356;SDS011;63946;51.986;5.930;2024-03-17T10:03:53;6.80;;;4.63;;
75356;SDS011;63946;51.986;5.930;2024-03-17T10:06:25;5.38;;;4.47;;
75356;SDS011;63946;51.986;5.930;2024-03-17T10:08:55;9.00;;;4.65;;
75356;SDS011;63946;51.986;5.930;2024-03-17T10:11:33;8.38;;;4.43;;
75356;SDS011;63946;51.986;5.930;2024-03-17T10:14:04;7.10;;;5.13;;
75356;SDS011;63946;51.986;5.930;2024-03-17T10:16:35;8.48;;;5.18;;
75356;SDS011;63946;51.986;5.930;2024-03-17T10:19:09;5.95;;;4.90;;
75356;SDS011;63946;51.986;5.930;2024-03-17T10:21:43;5.10;;;4.55;;
75356;SDS011;63946;51.986;5.930;2024-03-17T10:24:20;8.07;;;4.80;;
75356;SDS011;63946;51.986;5.930;2024-03-17T10:26:54;8.70;;;5.03;;
75356;SDS011;63946;51.986;5.930;2024-03-17T10:29:28;9.23;;;5.88;;
75356;SDS011;63946;51.986;5.930;2024-03-17T10:32:04;6.22;;;4.78;;
75356;SDS011;63946;51.986;5.930;2024-03-17T10:34:42;8.90;;;5.63;;
75356;SDS011;63946;51.986;5.930;2024-03-17T10:39:45;7.00;;;5.63;;
75356;SDS011;63946;51.986;5.930;2024-03-17T10:42:15;6.88;;;5.13;;
75356;SDS011;63946;51.986;5.930;2024-03-17T10:44:54;7.22;;;5.25;;
75356;SDS011;63946;51.986;5.930;2024-03-17T10:49:53;6.55;;;4.82;;
75356;SDS011;63946;51.986;5.930;2024-03-17T10:52:23;7.53;;;4.68;;
75356;SDS011;63946;51.986;5.930;2024-03-17T10:54:54;7.97;;;4.95;;
75356;SDS011;63946;51.986;5.930;2024-03-17T10:59:52;7.15;;;4.97;;
75356;SDS011;63946;51.986;5.930;2024-03-17T11:02:25;5.82;;;4.78;;
75356;SDS011;63946;51.986;5.930;2024-03-17T11:07:34;7.10;;;4.85;;
75356;SDS011;63946;51.986;5.930;2024-03-17T11:10:09;5.72;;;4.35;;
75356;SDS011;63946;51.986;5.930;2024-03-17T11:12:43;7.85;;;5.03;;
75356;SDS011;63946;51.986;5.930;2024-03-17T11:17:51;8.10;;;5.15;;
75356;SDS011;63946;51.986;5.930;2024-03-17T11:20:26;7.90;;;5.82;;
75356;SDS011;63946;51.986;5.930;2024-03-17T11:22:59;7.43;;;5.28;;
75356;SDS011;63946;51.986;5.930;2024-03-17T11:27:59;7.88;;;5.03;;
75356;SDS011;63946;51.986;5.930;2024-03-17T11:41:43;5.18;;;4.13;;
75356;SDS011;63946;51.986;5.930;2024-03-17T11:46:50;7.13;;;5.38;;
75356;SDS011;63946;51.986;5.930;2024-03-17T11:49:18;7.15;;;5.45;;
75356;SDS011;63946;51.986;5.930;2024-03-17T11:51:49;7.57;;;4.72;;
75356;SDS011;63946;51.986;5.930;2024-03-17T11:54:17;7.57;;;5.72;;
75356;SDS011;63946;51.986;5.930;2024-03-17T11:56:50;7.63;;;5.07;;
75356;SDS011;63946;51.986;5.930;2024-03-17T11:59:18;7.22;;;5.00;;
75356;SDS011;63946;51.986;5.930;2024-03-17T12:01:48;7.65;;;5.35;;
75356;SDS011;63946;51.986;5.930;2024-03-17T12:04:16;7.97;;;4.78;;
75356;SDS011;63946;51.986;5.930;2024-03-17T12:06:54;6.43;;;5.13;;
75356;SDS011;63946;51.986;5.930;2024-03-17T12:09:26;6.85;;;4.65;;
75356;SDS011;63946;51.986;5.930;2024-03-17T12:12:08;10.02;;;5.70;;
75356;SDS011;63946;51.986;5.930;2024-03-17T12:14:35;9.63;;;5.20;;
75356;SDS011;63946;51.986;5.930;2024-03-17T12:17:09;8.02;;;4.80;;
75356;SDS011;63946;51.986;5.930;2024-03-17T12:19:39;8.77;;;5.57;;
75356;SDS011;63946;51.986;5.930;2024-03-17T12:22:07;7.15;;;4.90;;
75356;SDS011;63946;51.986;5.930;2024-03-17T12:24:36;7.22;;;5.05;;
75356;SDS011;63946;51.986;5.930;2024-03-17T12:27:06;7.07;;;5.53;;
75356;SDS011;63946;51.986;5.930;2024-03-17T12:29:35;8.75;;;5.43;;
75356;SDS011;63946;51.986;5.930;2024-03-17T12:32:03;7.38;;;4.70;;
75356;SDS011;63946;51.986;5.930;2024-03-17T12:34:34;9.57;;;5.38;;
75356;SDS011;63946;51.986;5.930;2024-03-17T12:37:00;8.25;;;6.22;;
75356;SDS011;63946;51.986;5.930;2024-03-17T12:39:30;10.00;;;6.15;;
75356;SDS011;63946;51.986;5.930;2024-03-17T12:42:14;8.00;;;5.35;;
75356;SDS011;63946;51.986;5.930;2024-03-17T12:47:21;6.15;;;4.70;;
75356;SDS011;63946;51.986;5.930;2024-03-17T12:49:54;8.05;;;5.53;;
75356;SDS011;63946;51.986;5.930;2024-03-17T12:52:22;9.30;;;5.47;;
75356;SDS011;63946;51.986;5.930;2024-03-17T12:57:44;7.25;;;4.88;;
75356;SDS011;63946;51.986;5.930;2024-03-17T13:00:26;7.88;;;5.25;;
75356;SDS011;63946;51.986;5.930;2024-03-17T13:03:01;8.38;;;5.03;;
75356;SDS011;63946;51.986;5.930;2024-03-17T13:05:34;8.35;;;6.18;;
75356;SDS011;63946;51.986;5.930;2024-03-17T13:08:04;7.82;;;5.13;;
75356;SDS011;63946;51.986;5.930;2024-03-17T13:10:33;7.22;;;4.50;;
75356;SDS011;63946;51.986;5.930;2024-03-17T13:13:02;6.72;;;4.93;;
75356;SDS011;63946;51.986;5.930;2024-03-17T13:15:33;7.95;;;5.32;;
75356;SDS011;63946;51.986;5.930;2024-03-17T13:18:02;7.35;;;5.28;;
75356;SDS011;63946;51.986;5.930;2024-03-17T13:20:32;7.57;;;4.97;;
75356;SDS011;63946;51.986;5.930;2024-03-17T13:23:01;10.52;;;5.72;;
75356;SDS011;63946;51.986;5.930;2024-03-17T13:25:30;9.40;;;5.65;;
75356;SDS011;63946;51.986;5.930;2024-03-17T13:28:00;7.43;;;5.60;;
75356;SDS011;63946;51.986;5.930;2024-03-17T13:30:30;9.57;;;5.30;;
75356;SDS011;63946;51.986;5.930;2024-03-17T13:33:02;9.38;;;4.95;;
75356;SDS011;63946;51.986;5.930;2024-03-17T13:35:34;9.93;;;5.05;;
75356;SDS011;63946;51.986;5.930;2024-03-17T13:38:05;9.73;;;6.32;;
75356;SDS011;63946;51.986;5.930;2024-03-17T13:40:36;12.57;;;6.00;;
75356;SDS011;63946;51.986;5.930;2024-03-17T13:43:07;11.05;;;5.80;;
75356;SDS011;63946;51.986;5.930;2024-03-17T13:45:40;12.13;;;5.68;;
75356;SDS011;63946;51.986;5.930;2024-03-17T13:48:13;9.35;;;5.68;;
75356;SDS011;63946;51.986;5.930;2024-03-17T13:50:41;7.68;;;4.78;;
75356;SDS011;63946;51.986;5.930;2024-03-17T13:53:12;8.63;;;4.95;;
75356;SDS011;63946;51.986;5.930;2024-03-17T13:55:41;10.07;;;5.70;;
75356;SDS011;63946;51.986;5.930;2024-03-17T13:58:11;9.25;;;5.95;;
75356;SDS011;63946;51.986;5.930;2024-03-17T14:00:40;10.20;;;5.55;;
75356;SDS011;63946;51.986;5.930;2024-03-17T14:03:09;8.40;;;5.57;;
75356;SDS011;63946;51.986;5.930;2024-03-17T14:05:38;9.60;;;5.47;;
75356;SDS011;63946;51.986;5.930;2024-03-17T14:08:06;10.95;;;5.13;;
75356;SDS011;63946;51.986;5.930;2024-03-17T14:10:35;10.00;;;5.78;;
75356;SDS011;63946;51.986;5.930;2024-03-17T14:13:04;9.63;;;5.50;;
75356;SDS011;63946;51.986;5.930;2024-03-17T14:15:33;7.78;;;5.45;;
75356;SDS011;63946;51.986;5.930;2024-03-17T14:18:02;7.00;;;5.13;;
75356;SDS011;63946;51.986;5.930;2024-03-17T14:20:32;10.25;;;5.43;;
75356;SDS011;63946;51.986;5.930;2024-03-17T14:23:02;12.48;;;6.38;;
75356;SDS011;63946;51.986;5.930;2024-03-17T14:25:31;7.88;;;5.72;;
75356;SDS011;63946;51.986;5.930;2024-03-17T14:28:00;10.50;;;5.38;;
75356;SDS011;63946;51.986;5.930;2024-03-17T14:30:29;6.78;;;4.53;;
75356;SDS011;63946;51.986;5.930;2024-03-17T14:32:58;9.90;;;5.85;;
75356;SDS011;63946;51.986;5.930;2024-03-17T14:35:31;11.35;;;5.82;;
75356;SDS011;63946;51.986;5.930;2024-03-17T14:38:02;9.40;;;5.72;;
75356;SDS011;63946;51.986;5.930;2024-03-17T14:40:31;10.88;;;6.40;;
75356;SDS011;63946;51.986;5.930;2024-03-17T14:42:59;9.52;;;5.63;;
75356;SDS011;63946;51.986;5.930;2024-03-17T14:45:29;9.63;;;5.38;;
75356;SDS011;63946;51.986;5.930;2024-03-17T14:47:57;8.95;;;5.10;;
75356;SDS011;63946;51.986;5.930;2024-03-17T14:50:26;10.57;;;5.82;;
75356;SDS011;63946;51.986;5.930;2024-03-17T14:52:55;12.10;;;6.03;;
75356;SDS011;63946;51.986;5.930;2024-03-17T14:55:23;9.02;;;5.95;;
75356;SDS011;63946;51.986;5.930;2024-03-17T14:57:52;7.75;;;4.93;;
75356;SDS011;63946;51.986;5.930;2024-03-17T15:00:21;10.25;;;5.25;;
75356;SDS011;63946;51.986;5.930;2024-03-17T15:02:51;8.35;;;5.15;;
75356;SDS011;63946;51.986;5.930;2024-03-17T15:05:20;8.70;;;5.20;;
75356;SDS011;63946;51.986;5.930;2024-03-17T15:07:50;10.05;;;5.72;;
75356;SDS011;63946;51.986;5.930;2024-03-17T15:10:19;9.80;;;5.90;;
75356;SDS011;63946;51.986;5.930;2024-03-17T15:12:49;8.02;;;5.65;;
75356;SDS011;63946;51.986;5.930;2024-03-17T15:15:19;8.63;;;5.72;;
75356;SDS011;63946;51.986;5.930;2024-03-17T15:17:48;9.85;;;5.68;;
75356;SDS011;63946;51.986;5.930;2024-03-17T15:20:17;9.63;;;5.25;;
75356;SDS011;63946;51.986;5.930;2024-03-17T15:22:47;10.30;;;5.40;;
75356;SDS011;63946;51.986;5.930;2024-03-17T15:25:17;8.13;;;5.60;;
75356;SDS011;63946;51.986;5.930;2024-03-17T15:27:49;8.20;;;4.88;;
75356;SDS011;63946;51.986;5.930;2024-03-17T15:30:18;8.77;;;5.60;;
75356;SDS011;63946;51.986;5.930;2024-03-17T15:32:48;11.52;;;5.28;;
75356;SDS011;63946;51.986;5.930;2024-03-17T15:35:20;9.30;;;5.80;;
75356;SDS011;63946;51.986;5.930;2024-03-17T15:37:49;7.65;;;5.45;;
75356;SDS011;63946;51.986;5.930;2024-03-17T15:40:18;7.93;;;5.10;;
75356;SDS011;63946;51.986;5.930;2024-03-17T15:42:47;7.07;;;4.93;;
75356;SDS011;63946;51.986;5.930;2024-03-17T15:45:16;7.18;;;4.72;;
75356;SDS011;63946;51.986;5.930;2024-03-17T15:47:48;8.68;;;5.35;;
75356;SDS011;63946;51.986;5.930;2024-03-17T15:50:17;8.77;;;5.05;;
75356;SDS011;63946;51.986;5.930;2024-03-17T15:52:45;8.88;;;5.97;;
75356;SDS011;63946;51.986;5.930;2024-03-17T15:55:14;8.80;;;5.28;;
75356;SDS011;63946;51.986;5.930;2024-03-17T15:57:43;9.00;;;5.43;;
75356;SDS011;63946;51.986;5.930;2024-03-17T16:00:12;6.15;;;4.93;;
75356;SDS011;63946;51.986;5.930;2024-03-17T16:02:42;7.93;;;5.25;;
75356;SDS011;63946;51.986;5.930;2024-03-17T16:05:14;8.70;;;4.95;;
75356;SDS011;63946;51.986;5.930;2024-03-17T16:07:45;6.93;;;5.13;;
75356;SDS011;63946;51.986;5.930;2024-03-17T16:10:16;8.85;;;5.53;;
75356;SDS011;63946;51.986;5.930;2024-03-17T16:12:47;9.52;;;6.53;;
75356;SDS011;63946;51.986;5.930;2024-03-17T16:15:17;7.80;;;5.07;;
75356;SDS011;63946;51.986;5.930;2024-03-17T16:17:46;7.63;;;4.60;;
75356;SDS011;63946;51.986;5.930;2024-03-17T16:20:19;6.25;;;4.10;;
75356;SDS011;63946;51.986;5.930;2024-03-17T16:23:10;7.00;;;4.40;;
75356;SDS011;63946;51.986;5.930;2024-03-17T16:25:39;7.90;;;4.70;;
75356;SDS011;63946;51.986;5.930;2024-03-17T16:28:09;6.55;;;4.38;;
75356;SDS011;63946;51.986;5.930;2024-03-17T16:30:38;7.88;;;4.88;;
75356;SDS011;63946;51.986;5.930;2024-03-17T16:33:07;9.75;;;5.68;;
75356;SDS011;63946;51.986;5.930;2024-03-17T16:38:11;9.05;;;5.43;;
75356;SDS011;63946;51.986;5.930;2024-03-17T16:40:43;9.18;;;5.30;;
75356;SDS011;63946;51.986;5.930;2024-03-17T16:43:21;8.13;;;5.65;;
75356;SDS011;63946;51.986;5.930;2024-03-17T16:46:00;8.15;;;4.80;;
75356;SDS011;63946;51.986;5.930;2024-03-17T16:48:36;8.13;;;4.88;;
75356;SDS011;63946;51.986;5.930;2024-03-17T16:51:04;8.48;;;4.45;;
75356;SDS011;63946;51.986;5.930;2024-03-17T16:53:33;8.25;;;5.05;;
75356;SDS011;63946;51.986;5.930;2024-03-17T16:56:02;8.00;;;5.05;;
75356;SDS011;63946;51.986;5.930;2024-03-17T16:58:31;6.28;;;4.57;;
75356;SDS011;63946;51.986;5.930;2024-03-17T17:01:00;6.93;;;4.53;;
75356;SDS011;63946;51.986;5.930;2024-03-17T17:03:31;6.75;;;5.07;;
75356;SDS011;63946;51.986;5.930;2024-03-17T17:06:03;7.82;;;4.60;;
75356;SDS011;63946;51.986;5.930;2024-03-17T17:08:32;7.97;;;5.15;;
75356;SDS011;63946;51.986;5.930;2024-03-17T17:11:01;7.03;;;4.63;;
75356;SDS011;63946;51.986;5.930;2024-03-17T17:13:30;7.78;;;4.35;;
75356;SDS011;63946;51.986;5.930;2024-03-17T17:15:58;7.93;;;4.82;;
75356;SDS011;63946;51.986;5.930;2024-03-17T17:18:46;8.65;;;4.95;;
75356;SDS011;63946;51.986;5.930;2024-03-17T17:21:25;7.38;;;4.28;;
75356;SDS011;63946;51.986;5.930;2024-03-17T17:23:56;6.93;;;4.47;;
75356;SDS011;63946;51.986;5.930;2024-03-17T17:26:25;5.32;;;4.00;;
75356;SDS011;63946;51.986;5.930;2024-03-17T17:28:57;7.05;;;4.50;;
75356;SDS011;63946;51.986;5.930;2024-03-17T17:31:28;8.00;;;5.07;;
75356;SDS011;63946;51.986;5.930;2024-03-17T17:36:29;7.03;;;4.22;;
75356;SDS011;63946;51.986;5.930;2024-03-17T17:38:58;9.00;;;4.90;;
75356;SDS011;63946;51.986;5.930;2024-03-17T17:41:27;7.65;;;4.35;;
75356;SDS011;63946;51.986;5.930;2024-03-17T17:43:59;6.85;;;5.30;;
75356;SDS011;63946;51.986;5.930;2024-03-17T17:46:29;8.20;;;5.10;;
75356;SDS011;63946;51.986;5.930;2024-03-17T17:48:57;6.88;;;4.93;;
75356;SDS011;63946;51.986;5.930;2024-03-17T17:51:26;10.50;;;5.38;;
75356;SDS011;63946;51.986;5.930;2024-03-17T17:53:55;7.10;;;4.85;;
75356;SDS011;63946;51.986;5.930;2024-03-17T17:56:24;7.25;;;4.50;;
75356;SDS011;63946;51.986;5.930;2024-03-17T17:58:52;8.02;;;5.53;;
75356;SDS011;63946;51.986;5.930;2024-03-17T18:01:21;7.90;;;5.47;;
75356;SDS011;63946;51.986;5.930;2024-03-17T18:03:50;8.18;;;4.95;;
75356;SDS011;63946;51.986;5.930;2024-03-17T18:06:20;7.93;;;4.97;;
75356;SDS011;63946;51.986;5.930;2024-03-17T18:08:48;7.47;;;4.75;;
75356;SDS011;63946;51.986;5.930;2024-03-17T18:11:20;7.70;;;5.07;;
75356;SDS011;63946;51.986;5.930;2024-03-17T18:13:52;12.35;;;5.40;;
75356;SDS011;63946;51.986;5.930;2024-03-17T18:16:21;8.57;;;5.22;;
75356;SDS011;63946;51.986;5.930;2024-03-17T18:18:49;8.32;;;5.13;;
75356;SDS011;63946;51.986;5.930;2024-03-17T18:21:18;11.10;;;6.07;;
75356;SDS011;63946;51.986;5.930;2024-03-17T18:23:47;9.32;;;5.18;;
75356;SDS011;63946;51.986;5.930;2024-03-17T18:26:17;8.15;;;5.55;;
75356;SDS011;63946;51.986;5.930;2024-03-17T18:28:46;8.40;;;5.60;;
75356;SDS011;63946;51.986;5.930;2024-03-17T18:31:15;8.52;;;5.30;;
75356;SDS011;63946;51.986;5.930;2024-03-17T18:33:44;8.15;;;5.65;;
75356;SDS011;63946;51.986;5.930;2024-03-17T18:36:16;6.93;;;5.30;;
75356;SDS011;63946;51.986;5.930;2024-03-17T18:38:45;7.20;;;5.05;;
75356;SDS011;63946;51.986;5.930;2024-03-17T18:41:14;9.88;;;5.65;;
75356;SDS011;63946;51.986;5.930;2024-03-17T18:43:43;9.77;;;5.95;;
75356;SDS011;63946;51.986;5.930;2024-03-17T18:46:16;9.25;;;6.20;;
75356;SDS011;63946;51.986;5.930;2024-03-17T18:48:48;7.53;;;5.32;;
75356;SDS011;63946;51.986;5.930;2024-03-17T18:51:18;6.70;;;5.22;;
75356;SDS011;63946;51.986;5.930;2024-03-17T18:53:48;8.05;;;5.78;;
75356;SDS011;63946;51.986;5.930;2024-03-17T18:56:20;12.30;;;6.88;;
75356;SDS011;63946;51.986;5.930;2024-03-17T18:58:50;10.30;;;7.22;;
75356;SDS011;63946;51.986;5.930;2024-03-17T19:01:18;9.57;;;6.57;;
75356;SDS011;63946;51.986;5.930;2024-03-17T19:03:48;9.68;;;6.60;;
75356;SDS011;63946;51.986;5.930;2024-03-17T19:06:17;11.27;;;7.60;;
75356;SDS011;63946;51.986;5.930;2024-03-17T19:08:46;8.70;;;7.10;;
75356;SDS011;63946;51.986;5.930;2024-03-17T19:11:16;10.23;;;7.32;;
75356;SDS011;63946;51.986;5.930;2024-03-17T19:13:45;11.65;;;7.20;;
75356;SDS011;63946;51.986;5.930;2024-03-17T19:16:14;12.13;;;8.18;;
75356;SDS011;63946;51.986;5.930;2024-03-17T19:18:43;12.85;;;7.30;;
75356;SDS011;63946;51.986;5.930;2024-03-17T19:21:15;12.30;;;7.50;;
75356;SDS011;63946;51.986;5.930;2024-03-17T19:23:44;9.57;;;6.15;;
75356;SDS011;63946;51.986;5.930;2024-03-17T19:26:14;9.20;;;7.35;;
75356;SDS011;63946;51.986;5.930;2024-03-17T19:28:46;13.82;;;8.10;;
75356;SDS011;63946;51.986;5.930;2024-03-17T19:31:15;10.18;;;7.43;;
75356;SDS011;63946;51.986;5.930;2024-03-17T19:33:45;10.57;;;6.78;;
75356;SDS011;63946;51.986;5.930;2024-03-17T19:36:14;9.80;;;6.95;;
75356;SDS011;63946;51.986;5.930;2024-03-17T19:38:43;10.80;;;7.43;;
75356;SDS011;63946;51.986;5.930;2024-03-17T19:41:16;10.50;;;7.30;;
75356;SDS011;63946;51.986;5.930;2024-03-17T19:43:44;10.25;;;6.82;;
75356;SDS011;63946;51.986;5.930;2024-03-17T19:46:15;10.52;;;6.72;;
75356;SDS011;63946;51.986;5.930;2024-03-17T19:51:24;9.15;;;6.13;;
75356;SDS011;63946;51.986;5.930;2024-03-17T19:53:54;10.80;;;6.57;;
75356;SDS011;63946;51.986;5.930;2024-03-17T19:56:23;9.93;;;6.75;;
75356;SDS011;63946;51.986;5.930;2024-03-17T19:58:52;12.02;;;6.90;;
75356;SDS011;63946;51.986;5.930;2024-03-17T20:01:22;11.23;;;7.20;;
75356;SDS011;63946;51.986;5.930;2024-03-17T20:03:52;10.48;;;6.40;;
75356;SDS011;63946;51.986;5.930;2024-03-17T20:06:21;10.18;;;6.47;;
75356;SDS011;63946;51.986;5.930;2024-03-17T20:08:53;12.30;;;6.70;;
75356;SDS011;63946;51.986;5.930;2024-03-17T20:11:23;9.55;;;6.68;;
75356;SDS011;63946;51.986;5.930;2024-03-17T20:13:52;8.95;;;6.18;;
75356;SDS011;63946;51.986;5.930;2024-03-17T20:16:22;11.63;;;6.38;;
75356;SDS011;63946;51.986;5.930;2024-03-17T20:18:57;7.80;;;5.90;;
75356;SDS011;63946;51.986;5.930;2024-03-17T20:21:26;10.23;;;5.88;;
75356;SDS011;63946;51.986;5.930;2024-03-17T20:23:54;10.85;;;5.80;;
75356;SDS011;63946;51.986;5.930;2024-03-17T20:26:24;8.07;;;6.30;;
75356;SDS011;63946;51.986;5.930;2024-03-17T20:28:56;8.30;;;6.10;;
75356;SDS011;63946;51.986;5.930;2024-03-17T20:31:28;11.55;;;6.05;;
75356;SDS011;63946;51.986;5.930;2024-03-17T20:33:56;11.82;;;6.20;;
75356;SDS011;63946;51.986;5.930;2024-03-17T20:36:25;9.23;;;6.20;;
75356;SDS011;63946;51.986;5.930;2024-03-17T20:38:54;9.27;;;5.93;;
75356;SDS011;63946;51.986;5.930;2024-03-17T20:41:22;9.98;;;6.10;;
75356;SDS011;63946;51.986;5.930;2024-03-17T20:43:51;7.88;;;4.97;;
75356;SDS011;63946;51.986;5.930;2024-03-17T20:46:20;11.73;;;7.18;;
75356;SDS011;63946;51.986;5.930;2024-03-17T20:48:49;9.68;;;6.00;;
75356;SDS011;63946;51.986;5.930;2024-03-17T20:51:19;7.93;;;5.60;;
75356;SDS011;63946;51.986;5.930;2024-03-17T20:53:47;8.82;;;5.38;;
75356;SDS011;63946;51.986;5.930;2024-03-17T20:56:16;7.50;;;5.57;;
75356;SDS011;63946;51.986;5.930;2024-03-17T20:58:46;8.65;;;6.45;;
75356;SDS011;63946;51.986;5.930;2024-03-17T21:01:16;7.28;;;5.15;;
75356;SDS011;63946;51.986;5.930;2024-03-17T21:03:44;6.95;;;4.78;;
75356;SDS011;63946;51.986;5.930;2024-03-17T21:06:13;8.65;;;5.95;;
75356;SDS011;63946;51.986;5.930;2024-03-17T21:08:42;9.00;;;5.50;;
75356;SDS011;63946;51.986;5.930;2024-03-17T21:11:11;9.20;;;5.70;;
75356;SDS011;63946;51.986;5.930;2024-03-17T21:13:41;8.38;;;4.78;;
75356;SDS011;63946;51.986;5.930;2024-03-17T21:16:10;7.00;;;5.32;;
75356;SDS011;63946;51.986;5.930;2024-03-17T21:18:39;7.55;;;4.43;;
75356;SDS011;63946;51.986;5.930;2024-03-17T21:21:08;8.60;;;4.80;;
75356;SDS011;63946;51.986;5.930;2024-03-17T21:23:36;8.07;;;5.20;;
75356;SDS011;63946;51.986;5.930;2024-03-17T21:26:08;8.73;;;5.45;;
75356;SDS011;63946;51.986;5.930;2024-03-17T21:28:37;7.35;;;5.00;;
75356;SDS011;63946;51.986;5.930;2024-03-17T21:31:06;6.45;;;5.10;;
75356;SDS011;63946;51.986;5.930;2024-03-17T21:33:35;6.32;;;4.68;;
75356;SDS011;63946;51.986;5.930;2024-03-17T21:36:04;8.52;;;4.43;;
75356;SDS011;63946;51.986;5.930;2024-03-17T21:38:33;6.50;;;4.70;;
75356;SDS011;63946;51.986;5.930;2024-03-17T21:41:03;5.65;;;4.82;;
75356;SDS011;63946;51.986;5.930;2024-03-17T21:43:42;7.05;;;5.07;;
75356;SDS011;63946;51.986;5.930;2024-03-17T21:46:12;6.20;;;4.80;;
75356;SDS011;63946;51.986;5.930;2024-03-17T21:48:41;8.70;;;6.15;;
75356;SDS011;63946;51.986;5.930;2024-03-17T21:51:13;7.35;;;5.70;;
75356;SDS011;63946;51.986;5.930;2024-03-17T21:53:49;7.97;;;5.53;;
75356;SDS011;63946;51.986;5.930;2024-03-17T21:56:19;8.30;;;5.38;;
75356;SDS011;63946;51.986;5.930;2024-03-17T21:58:48;7.57;;;5.63;;
75356;SDS011;63946;51.986;5.930;2024-03-17T22:01:17;9.02;;;5.65;;
75356;SDS011;63946;51.986;5.930;2024-03-17T22:03:45;7.28;;;5.22;;
75356;SDS011;63946;51.986;5.930;2024-03-17T22:06:15;7.65;;;5.90;;
75356;SDS011;63946;51.986;5.930;2024-03-17T22:08:43;5.80;;;4.82;;
75356;SDS011;63946;51.986;5.930;2024-03-17T22:11:12;8.57;;;5.90;;
75356;SDS011;63946;51.986;5.930;2024-03-17T22:13:41;7.18;;;5.35;;
75356;SDS011;63946;51.986;5.930;2024-03-17T22:16:09;5.90;;;5.20;;
75356;SDS011;63946;51.986;5.930;2024-03-17T22:18:40;8.98;;;6.60;;
75356;SDS011;63946;51.986;5.930;2024-03-17T22:21:09;7.45;;;6.07;;
75356;SDS011;63946;51.986;5.930;2024-03-17T22:23:40;7.93;;;6.32;;
75356;SDS011;63946;51.986;5.930;2024-03-17T22:26:12;11.00;;;7.20;;
